Time;durP1;ratioP1;P1;durP2;ratioP2;P2;SDS_P1;SDS_P2;PMS_P1;PMS_P2;Temp;Humidity;BMP_temperature;BMP_pressure;BME280_temperature;BME280_humidity;BME280_pressure;Samples;Min_cycle;Max_cycle;Signal;HPM_P1;HPM_P2
2023/11/15 00:03:45;;;;;;;12.00;4.67;;;11.10;99.90;;;;;;4631976;30;20664;-88
2023/11/15 00:39:41;;;;;;;9.40;4.77;;;10.80;99.90;;;;;;4888783;28;20220;-88
2023/11/15 01:20:13;;;;;;;5.83;3.83;;;10.20;99.90;;;;;;4773961;29;21335;-85
2023/11/15 01:45:32;;;;;;;9.17;4.10;;;10.20;99.90;;;;;;4860432;28;20213;-84
2023/11/15 02:05:38;;;;;;;6.90;3.87;;;10.30;99.90;;;;;;4603386;30;20325;-85
2023/11/15 02:31:19;;;;;;;8.47;3.90;;;10.50;99.90;;;;;;4573308;30;20994;-83
2023/11/15 02:56:02;;;;;;;7.40;3.87;;;10.40;99.90;;;;;;4635811;29;20682;-84
2023/11/15 03:21:56;;;;;;;6.87;3.70;;;10.40;99.90;;;;;;4621628;30;20248;-88
2023/11/15 03:57:11;;;;;;;7.53;4.30;;;10.30;99.90;;;;;;4525667;30;20553;-87
2023/11/15 04:22:36;;;;;;;5.30;3.67;;;10.40;99.90;;;;;;4634141;29;20677;-83
2023/11/15 04:52:36;;;;;;;7.93;3.70;;;10.30;99.90;;;;;;4586118;29;20378;-84
2023/11/15 05:17:55;;;;;;;6.87;4.13;;;9.90;99.90;;;;;;4585022;30;20345;-87
2023/11/15 05:43:38;;;;;;;10.13;4.67;;;10.10;99.90;;;;;;4614032;30;22466;-83
2023/11/15 06:03:59;;;;;;;9.00;5.03;;;10.30;99.90;;;;;;4615145;30;20243;-86
2023/11/15 06:34:38;;;;;;;12.23;6.00;;;10.20;99.90;;;;;;4644407;29;20251;-85
2023/11/15 06:59:55;;;;;;;11.43;6.03;;;10.20;99.90;;;;;;4496901;30;20226;-83
2023/11/15 07:20:10;;;;;;;11.37;7.77;;;10.30;99.90;;;;;;4476302;30;20219;-83
2023/11/15 07:50:33;;;;;;;12.57;8.40;;;9.80;99.90;;;;;;4563424;30;20224;-82
2023/11/15 08:10:58;;;;;;;10.03;8.03;;;9.80;99.90;;;;;;4654574;29;20221;-84
2023/11/15 08:36:18;;;;;;;12.50;7.03;;;9.70;99.90;;;;;;4499200;30;20600;-85
2023/11/15 09:01:44;;;;;;;7.87;5.90;;;9.80;99.90;;;;;;4733157;29;20206;-84
2023/11/15 09:32:13;;;;;;;11.03;6.33;;;10.10;99.90;;;;;;4766232;29;21116;-88
2023/11/15 09:56:53;;;;;;;12.53;8.73;;;10.40;99.90;;;;;;4674252;29;20209;-84
2023/11/15 10:17:50;;;;;;;13.10;9.20;;;10.40;99.90;;;;;;4604841;30;20220;-81
2023/11/15 11:03:12;;;;;;;6.93;5.03;;;10.40;99.90;;;;;;4732204;29;21804;-85
2023/11/15 11:38:54;;;;;;;5.47;4.17;;;10.70;99.90;;;;;;4818825;28;20204;-82
2023/11/15 12:09:11;;;;;;;6.03;4.00;;;10.50;99.90;;;;;;4807628;28;20247;-85
2023/11/15 12:39:23;;;;;;;6.10;4.40;;;10.80;99.90;;;;;;4556804;30;20650;-80
2023/11/15 13:04:50;;;;;;;6.37;5.10;;;10.20;99.90;;;;;;4595058;30;20660;-84
2023/11/15 13:40:34;;;;;;;7.97;5.83;;;8.90;99.90;;;;;;4807116;29;20228;-86
2023/11/15 14:10:31;;;;;;;13.13;11.73;;;8.20;99.90;;;;;;4564837;30;20234;-84
2023/11/15 14:31:14;;;;;;;11.33;9.10;;;7.90;99.90;;;;;;4589966;29;20298;-85
2023/11/15 14:56:08;;;;;;;15.13;10.97;;;7.70;99.90;;;;;;4486531;30;20856;-86
2023/11/15 15:22:07;;;;;;;7.93;7.13;;;7.20;99.90;;;;;;4564596;30;20388;-89
2023/11/15 15:51:51;;;;;;;5.53;5.03;;;7.00;99.90;;;;;;4471510;30;20844;-84
2023/11/15 16:12:32;;;;;;;6.20;5.03;;;6.50;99.90;;;;;;4444121;31;20242;-82
2023/11/15 16:32:27;;;;;;;6.20;5.30;;;6.50;99.90;;;;;;4349614;31;20900;-83
2023/11/15 16:48:07;;;;;;;5.43;4.07;;;6.50;99.90;;;;;;4390179;30;20291;-83
2023/11/15 17:13:02;;;;;;;4.37;3.97;;;6.20;99.90;;;;;;4520490;30;20623;-86
2023/11/15 17:53:56;;;;;;;3.77;3.37;;;5.80;99.90;;;;;;4603748;30;20213;-82
2023/11/15 18:19:33;;;;;;;4.30;3.90;;;5.60;99.90;;;;;;4674862;29;20454;-86
2023/11/15 18:39:30;;;;;;;5.43;4.83;;;5.70;99.90;;;;;;4523743;30;20520;-80
2023/11/15 19:10:21;;;;;;;7.83;6.80;;;5.60;99.90;;;;;;4575519;30;20314;-82
2023/11/15 19:14:39;;;;;;;7.93;6.10;;;5.60;99.90;;;;;;4511226;30;20666;-81
2023/11/15 19:30:29;;;;;;;11.77;8.07;;;5.60;99.90;;;;;;4555124;30;20916;-88
2023/11/15 20:00:22;;;;;;;13.77;9.57;;;5.70;99.90;;;;;;4600793;29;20653;-84
2023/11/15 20:20:55;;;;;;;10.43;7.57;;;5.60;99.90;;;;;;4663664;29;20304;-83
2023/11/15 20:41:16;;;;;;;15.13;10.00;;;5.60;99.90;;;;;;4593955;30;20214;-85
2023/11/15 21:11:15;;;;;;;15.33;10.73;;;5.20;99.90;;;;;;4481794;30;21329;-86
2023/11/15 21:32:13;;;;;;;17.73;12.20;;;5.10;99.90;;;;;;4499118;30;20274;-83
2023/11/15 22:02:05;;;;;;;16.77;12.03;;;5.00;99.90;;;;;;4500504;30;20209;-83
2023/11/15 22:22:49;;;;;;;16.23;10.03;;;5.00;99.90;;;;;;4577350;30;20206;-83
2023/11/15 22:47:36;;;;;;;14.00;8.87;;;4.90;99.90;;;;;;4460677;30;21201;-84
2023/11/15 23:08:22;;;;;;;12.90;8.67;;;5.10;99.90;;;;;;4570686;30;20547;-81
2023/11/15 23:44:06;;;;;;;13.67;9.20;;;4.90;99.90;;;;;;4733615;29;20280;-83
2023/11/15 23:48:26;;;;;;;12.50;9.30;;;4.90;99.90;;;;;;4676530;29;20431;-86
